sensor_id;sensor_type;location;lat;lon;timestamp;pressure;altitude;pressure_sealevel;temperature;humidity
72798;BME280;61084;55.816;37.036;2022-09-25T00:01:34;97530.59;;;9.72;75.50
72798;BME280;61084;55.816;37.036;2022-09-25T00:04:01;97528.22;;;9.69;75.27
72798;BME280;61084;55.816;37.036;2022-09-25T00:06:28;97529.28;;;9.66;75.70
72798;BME280;61084;55.816;37.036;2022-09-25T00:08:54;97529.28;;;9.66;75.45
72798;BME280;61084;55.816;37.036;2022-09-25T00:11:22;97539.53;;;9.69;75.72
72798;BME280;61084;55.816;37.036;2022-09-25T00:13:49;97534.41;;;9.68;75.63
72798;BME280;61084;55.816;37.036;2022-09-25T00:16:18;97538.56;;;9.70;75.82
72798;BME280;61084;55.816;37.036;2022-09-25T00:18:44;97540.47;;;9.68;75.55
72798;BME280;61084;55.816;37.036;2022-09-25T00:21:29;97539.91;;;9.65;75.85
72798;BME280;61084;55.816;37.036;2022-09-25T00:23:57;97539.91;;;9.65;75.63
72798;BME280;61084;55.816;37.036;2022-09-25T00:26:29;97541.44;;;9.67;75.87
72798;BME280;61084;55.816;37.036;2022-09-25T00:28:56;97536.91;;;9.69;75.67
72798;BME280;61084;55.816;37.036;2022-09-25T00:31:25;97547.25;;;9.71;76.08
72798;BME280;61084;55.816;37.036;2022-09-25T00:34:02;97550.72;;;9.71;75.73
72798;BME280;61084;55.816;37.036;2022-09-25T00:36:29;97546.31;;;9.72;75.66
72798;BME280;61084;55.816;37.036;2022-09-25T00:38:55;97547.75;;;9.76;75.86
72798;BME280;61084;55.816;37.036;2022-09-25T00:41:23;97544.06;;;9.78;75.76
72798;BME280;61084;55.816;37.036;2022-09-25T00:43:52;97549.16;;;9.80;75.76
72798;BME280;61084;55.816;37.036;2022-09-25T00:46:42;97556.19;;;9.79;75.76
72798;BME280;61084;55.816;37.036;2022-09-25T00:49:15;97557.59;;;9.83;75.88
72798;BME280;61084;55.816;37.036;2022-09-25T00:51:49;97551.28;;;9.86;75.70
72798;BME280;61084;55.816;37.036;2022-09-25T00:54:30;97554.88;;;9.85;75.74
72798;BME280;61084;55.816;37.036;2022-09-25T00:56:59;97557.59;;;9.83;75.68
72798;BME280;61084;55.816;37.036;2022-09-25T00:59:37;97556.75;;;9.83;75.62
72798;BME280;61084;55.816;37.036;2022-09-25T01:02:06;97559.16;;;9.86;75.76
72798;BME280;61084;55.816;37.036;2022-09-25T01:04:35;97557.50;;;9.85;75.68
72798;BME280;61084;55.816;37.036;2022-09-25T01:07:02;97564.38;;;9.86;75.93
72798;BME280;61084;55.816;37.036;2022-09-25T01:09:28;97567.72;;;9.88;75.77
72798;BME280;61084;55.816;37.036;2022-09-25T01:11:55;97567.72;;;9.88;75.74
72798;BME280;61084;55.816;37.036;2022-09-25T01:14:21;97567.72;;;9.88;75.66
72798;BME280;61084;55.816;37.036;2022-09-25T01:16:54;97570.34;;;9.88;75.81
72798;BME280;61084;55.816;37.036;2022-09-25T01:19:49;97571.91;;;9.91;75.84
72798;BME280;61084;55.816;37.036;2022-09-25T01:25:28;97575.44;;;9.89;75.66
72798;BME280;61084;55.816;37.036;2022-09-25T01:28:16;97579.03;;;9.88;76.08
72798;BME280;61084;55.816;37.036;2022-09-25T01:30:51;97587.75;;;9.89;75.84
72798;BME280;61084;55.816;37.036;2022-09-25T01:33:28;97578.19;;;9.88;76.04
72798;BME280;61084;55.816;37.036;2022-09-25T01:36:10;97583.44;;;9.88;76.15
72798;BME280;61084;55.816;37.036;2022-09-25T01:38:56;97593.22;;;9.86;76.04
72798;BME280;61084;55.816;37.036;2022-09-25T01:41:59;97586.78;;;9.90;76.09
72798;BME280;61084;55.816;37.036;2022-09-25T01:44:29;97598.69;;;9.94;76.16
72798;BME280;61084;55.816;37.036;2022-09-25T01:47:13;97599.88;;;9.90;75.80
72798;BME280;61084;55.816;37.036;2022-09-25T01:50:01;97601.91;;;9.86;75.83
72798;BME280;61084;55.816;37.036;2022-09-25T01:52:36;97605.75;;;9.82;75.53
72798;BME280;61084;55.816;37.036;2022-09-25T01:55:42;97606.94;;;9.78;75.54
72798;BME280;61084;55.816;37.036;2022-09-25T01:58:16;97615.50;;;9.80;75.66
72798;BME280;61084;55.816;37.036;2022-09-25T02:00:48;97614.66;;;9.80;75.51
72798;BME280;61084;55.816;37.036;2022-09-25T02:03:20;97619.91;;;9.80;75.44
72798;BME280;61084;55.816;37.036;2022-09-25T02:05:54;97616.31;;;9.81;75.52
72798;BME280;61084;55.816;37.036;2022-09-25T02:08:35;97619.78;;;9.81;75.62
72798;BME280;61084;55.816;37.036;2022-09-25T02:11:05;97634.44;;;9.84;75.40
72798;BME280;61084;55.816;37.036;2022-09-25T02:16:37;97628.00;;;9.77;75.16
72798;BME280;61084;55.816;37.036;2022-09-25T02:19:04;97622.16;;;9.73;75.18
72798;BME280;61084;55.816;37.036;2022-09-25T02:27:04;97634.78;;;9.68;75.05
72798;BME280;61084;55.816;37.036;2022-09-25T02:29:30;97635.75;;;9.67;74.86
72798;BME280;61084;55.816;37.036;2022-09-25T02:32:04;97639.44;;;9.65;74.80
72798;BME280;61084;55.816;37.036;2022-09-25T02:34:31;97633.50;;;9.63;74.89
72798;BME280;61084;55.816;37.036;2022-09-25T02:36:57;97633.84;;;9.58;74.77
72798;BME280;61084;55.816;37.036;2022-09-25T02:39:25;97641.56;;;9.60;74.87
72798;BME280;61084;55.816;37.036;2022-09-25T02:55:31;97664.28;;;9.48;74.67
72798;BME280;61084;55.816;37.036;2022-09-25T02:58:04;97667.38;;;9.42;74.41
72798;BME280;61084;55.816;37.036;2022-09-25T03:00:34;97664.28;;;9.37;74.53
72798;BME280;61084;55.816;37.036;2022-09-25T03:03:05;97669.53;;;9.37;74.80
72798;BME280;61084;55.816;37.036;2022-09-25T03:05:33;97675.72;;;9.36;74.54
72798;BME280;61084;55.816;37.036;2022-09-25T03:07:59;97680.09;;;9.36;74.58
72798;BME280;61084;55.816;37.036;2022-09-25T03:11:00;97678.44;;;9.35;74.92
72798;BME280;61084;55.816;37.036;2022-09-25T03:13:27;97679.25;;;9.35;74.78
72798;BME280;61084;55.816;37.036;2022-09-25T03:16:00;97686.19;;;9.36;74.71
72798;BME280;61084;55.816;37.036;2022-09-25T03:18:28;97684.63;;;9.34;74.68
72798;BME280;61084;55.816;37.036;2022-09-25T03:20:55;97681.06;;;9.35;74.61
72798;BME280;61084;55.816;37.036;2022-09-25T03:23:21;97686.06;;;9.38;74.55
72798;BME280;61084;55.816;37.036;2022-09-25T03:25:47;97686.06;;;9.38;74.59
72798;BME280;61084;55.816;37.036;2022-09-25T03:28:13;97692.13;;;9.38;74.79
72798;BME280;61084;55.816;37.036;2022-09-25T03:30:40;97696.44;;;9.39;74.73
72798;BME280;61084;55.816;37.036;2022-09-25T03:33:07;97693.69;;;9.41;74.63
72798;BME280;61084;55.816;37.036;2022-09-25T03:35:35;97698.94;;;9.41;74.72
72798;BME280;61084;55.816;37.036;2022-09-25T03:38:01;97694.53;;;9.41;74.53
72798;BME280;61084;55.816;37.036;2022-09-25T03:40:27;97699.88;;;9.40;74.55
72798;BME280;61084;55.816;37.036;2022-09-25T03:42:53;97705.56;;;9.34;74.29
72798;BME280;61084;55.816;37.036;2022-09-25T03:45:19;97709.84;;;9.24;73.81
72798;BME280;61084;55.816;37.036;2022-09-25T03:47:45;97713.84;;;9.17;74.56
72798;BME280;61084;55.816;37.036;2022-09-25T03:50:10;97709.66;;;9.14;74.38
72798;BME280;61084;55.816;37.036;2022-09-25T03:52:36;97712.97;;;9.05;74.33
72798;BME280;61084;55.816;37.036;2022-09-25T03:55:02;97712.56;;;8.98;74.22
72798;BME280;61084;55.816;37.036;2022-09-25T03:57:28;97717.09;;;8.96;74.52
72798;BME280;61084;55.816;37.036;2022-09-25T03:59:55;97717.22;;;8.95;74.08
72798;BME280;61084;55.816;37.036;2022-09-25T04:02:26;97720.88;;;8.92;74.30
72798;BME280;61084;55.816;37.036;2022-09-25T04:04:53;97718.13;;;8.83;74.21
72798;BME280;61084;55.816;37.036;2022-09-25T04:07:22;97721.47;;;8.85;74.43
72798;BME280;61084;55.816;37.036;2022-09-25T04:09:49;97723.94;;;8.86;74.31
72798;BME280;61084;55.816;37.036;2022-09-25T04:12:15;97726.34;;;8.89;74.34
72798;BME280;61084;55.816;37.036;2022-09-25T04:14:42;97732.41;;;8.90;74.32
72798;BME280;61084;55.816;37.036;2022-09-25T04:17:10;97730.97;;;8.86;74.42
72798;BME280;61084;55.816;37.036;2022-09-25T04:19:36;97739.78;;;8.85;74.42
72798;BME280;61084;55.816;37.036;2022-09-25T04:22:02;97742.38;;;8.85;74.34
72798;BME280;61084;55.816;37.036;2022-09-25T04:24:28;97745.00;;;8.85;74.49
72798;BME280;61084;55.816;37.036;2022-09-25T04:27:13;97745.59;;;8.88;74.63
72798;BME280;61084;55.816;37.036;2022-09-25T04:29:39;97746.31;;;8.90;74.64
72798;BME280;61084;55.816;37.036;2022-09-25T04:32:06;97755.03;;;8.91;74.40
72798;BME280;61084;55.816;37.036;2022-09-25T04:34:50;97749.91;;;8.89;74.25
72798;BME280;61084;55.816;37.036;2022-09-25T04:37:16;97762.34;;;8.86;74.45
72798;BME280;61084;55.816;37.036;2022-09-25T04:39:42;97752.34;;;8.80;74.33
72798;BME280;61084;55.816;37.036;2022-09-25T04:42:07;97761.56;;;8.73;74.35
72798;BME280;61084;55.816;37.036;2022-09-25T04:44:33;97763.66;;;8.68;74.32
72798;BME280;61084;55.816;37.036;2022-09-25T04:46:59;97770.91;;;8.64;74.52
72798;BME280;61084;55.816;37.036;2022-09-25T04:49:25;97774.25;;;8.66;74.84
72798;BME280;61084;55.816;37.036;2022-09-25T04:51:51;97766.41;;;8.66;74.44
72798;BME280;61084;55.816;37.036;2022-09-25T04:54:17;97771.31;;;8.71;74.96
72798;BME280;61084;55.816;37.036;2022-09-25T04:56:43;97765.75;;;8.75;74.69
72798;BME280;61084;55.816;37.036;2022-09-25T04:59:08;97773.81;;;8.72;74.75
72798;BME280;61084;55.816;37.036;2022-09-25T05:01:36;97768.25;;;8.77;74.75
72798;BME280;61084;55.816;37.036;2022-09-25T05:04:03;97763.97;;;8.76;74.73
72798;BME280;61084;55.816;37.036;2022-09-25T05:06:29;97770.66;;;8.80;75.04
72798;BME280;61084;55.816;37.036;2022-09-25T05:08:55;97770.44;;;8.83;74.76
72798;BME280;61084;55.816;37.036;2022-09-25T05:11:22;97779.94;;;8.84;74.72
72798;BME280;61084;55.816;37.036;2022-09-25T05:13:49;97777.13;;;8.87;74.94
72798;BME280;61084;55.816;37.036;2022-09-25T05:16:15;97775.94;;;8.91;74.85
72798;BME280;61084;55.816;37.036;2022-09-25T05:18:41;97781.06;;;8.92;74.86
72798;BME280;61084;55.816;37.036;2022-09-25T05:21:07;97779.63;;;8.88;74.59
72798;BME280;61084;55.816;37.036;2022-09-25T05:23:33;97782.13;;;8.90;74.51
72798;BME280;61084;55.816;37.036;2022-09-25T05:25:58;97787.88;;;8.95;74.42
72798;BME280;61084;55.816;37.036;2022-09-25T05:28:31;97785.47;;;8.92;74.37
72798;BME280;61084;55.816;37.036;2022-09-25T05:31:04;97785.56;;;8.90;74.47
72798;BME280;61084;55.816;37.036;2022-09-25T05:33:31;97787.25;;;8.91;74.56
72798;BME280;61084;55.816;37.036;2022-09-25T05:36:01;97791.31;;;8.95;74.80
72798;BME280;61084;55.816;37.036;2022-09-25T05:38:27;97785.03;;;8.98;74.60
72798;BME280;61084;55.816;37.036;2022-09-25T05:40:53;97787.66;;;8.98;74.57
72798;BME280;61084;55.816;37.036;2022-09-25T05:43:22;97786.47;;;9.02;74.48
72798;BME280;61084;55.816;37.036;2022-09-25T05:45:52;97794.09;;;9.05;74.50
72798;BME280;61084;55.816;37.036;2022-09-25T05:48:18;97792.81;;;9.10;74.45
72798;BME280;61084;55.816;37.036;2022-09-25T05:50:50;97809.03;;;9.16;74.65
72798;BME280;61084;55.816;37.036;2022-09-25T05:53:15;97802.13;;;9.15;73.95
72798;BME280;61084;55.816;37.036;2022-09-25T05:55:51;97803.19;;;9.12;74.04
72798;BME280;61084;55.816;37.036;2022-09-25T05:58:17;97810.44;;;9.08;74.24
72798;BME280;61084;55.816;37.036;2022-09-25T06:00:43;97810.81;;;9.15;74.56
72798;BME280;61084;55.816;37.036;2022-09-25T06:03:09;97811.22;;;9.22;74.49
72798;BME280;61084;55.816;37.036;2022-09-25T06:05:37;97816.91;;;9.27;74.24
72798;BME280;61084;55.816;37.036;2022-09-25T06:08:05;97810.97;;;9.25;74.26
72798;BME280;61084;55.816;37.036;2022-09-25T06:10:32;97810.97;;;9.25;74.49
72798;BME280;61084;55.816;37.036;2022-09-25T06:12:59;97819.31;;;9.30;74.42
72798;BME280;61084;55.816;37.036;2022-09-25T06:15:26;97819.94;;;9.33;74.59
72798;BME280;61084;55.816;37.036;2022-09-25T06:17:53;97811.34;;;9.31;74.38
72798;BME280;61084;55.816;37.036;2022-09-25T06:20:19;97817.22;;;9.35;74.42
72798;BME280;61084;55.816;37.036;2022-09-25T06:22:54;97822.34;;;9.36;74.45
72798;BME280;61084;55.816;37.036;2022-09-25T06:25:21;97818.53;;;9.40;74.32
72798;BME280;61084;55.816;37.036;2022-09-25T06:27:51;97826.41;;;9.40;74.64
72798;BME280;61084;55.816;37.036;2022-09-25T06:30:18;97827.25;;;9.41;74.43
72798;BME280;61084;55.816;37.036;2022-09-25T06:32:44;97836.66;;;9.43;74.40
72798;BME280;61084;55.816;37.036;2022-09-25T06:35:10;97832.13;;;9.45;74.39
72798;BME280;61084;55.816;37.036;2022-09-25T06:37:36;97837.25;;;9.47;74.57
72798;BME280;61084;55.816;37.036;2022-09-25T06:40:02;97841.44;;;9.49;74.29
72798;BME280;61084;55.816;37.036;2022-09-25T06:42:29;97837.03;;;9.50;74.28
72798;BME280;61084;55.816;37.036;2022-09-25T06:44:54;97844.19;;;9.48;74.49
72798;BME280;61084;55.816;37.036;2022-09-25T06:47:20;97844.91;;;9.50;74.35
72798;BME280;61084;55.816;37.036;2022-09-25T06:49:46;97847.53;;;9.50;74.23
72798;BME280;61084;55.816;37.036;2022-09-25T06:52:12;97848.44;;;9.49;74.54
72798;BME280;61084;55.816;37.036;2022-09-25T06:54:38;97849.91;;;9.53;74.68
72798;BME280;61084;55.816;37.036;2022-09-25T06:57:03;97853.22;;;9.55;74.62
72798;BME280;61084;55.816;37.036;2022-09-25T06:59:29;97851.84;;;9.62;74.51
72798;BME280;61084;55.816;37.036;2022-09-25T07:01:55;97859.50;;;9.65;74.35
72798;BME280;61084;55.816;37.036;2022-09-25T07:04:41;97858.44;;;9.67;74.43
72798;BME280;61084;55.816;37.036;2022-09-25T07:07:06;97860.94;;;9.69;74.58
72798;BME280;61084;55.816;37.036;2022-09-25T07:09:32;97859.75;;;9.73;74.44
72798;BME280;61084;55.816;37.036;2022-09-25T07:11:58;97864.88;;;9.74;74.28
72798;BME280;61084;55.816;37.036;2022-09-25T07:14:24;97859.53;;;9.76;74.52
72798;BME280;61084;55.816;37.036;2022-09-25T07:16:50;97868.13;;;9.78;74.58
72798;BME280;61084;55.816;37.036;2022-09-25T07:19:16;97867.66;;;9.84;74.62
72798;BME280;61084;55.816;37.036;2022-09-25T07:21:41;97871.59;;;9.89;74.46
72798;BME280;61084;55.816;37.036;2022-09-25T07:24:07;97878.38;;;9.92;74.63
72798;BME280;61084;55.816;37.036;2022-09-25T07:26:33;97877.66;;;9.90;74.68
72798;BME280;61084;55.816;37.036;2022-09-25T07:29:02;97891.63;;;9.91;74.54
72798;BME280;61084;55.816;37.036;2022-09-25T07:31:31;97891.41;;;9.94;74.49
72798;BME280;61084;55.816;37.036;2022-09-25T07:33:58;97894.84;;;9.94;74.70
72798;BME280;61084;55.816;37.036;2022-09-25T07:36:25;97898.41;;;9.93;74.10
72798;BME280;61084;55.816;37.036;2022-09-25T07:38:51;97900.06;;;9.94;74.49
72798;BME280;61084;55.816;37.036;2022-09-25T07:41:18;97908.06;;;9.93;74.29
72798;BME280;61084;55.816;37.036;2022-09-25T07:43:50;97903.66;;;9.93;74.48
72798;BME280;61084;55.816;37.036;2022-09-25T07:46:17;97919.97;;;9.97;74.42
72798;BME280;61084;55.816;37.036;2022-09-25T07:48:42;97911.53;;;9.93;74.77
72798;BME280;61084;55.816;37.036;2022-09-25T07:51:10;97920.09;;;9.95;74.56
72798;BME280;61084;55.816;37.036;2022-09-25T07:53:37;97922.84;;;9.94;74.81
72798;BME280;61084;55.816;37.036;2022-09-25T07:56:04;97923.06;;;9.91;74.40
72798;BME280;61084;55.816;37.036;2022-09-25T07:58:29;97929.63;;;9.96;74.64
72798;BME280;61084;55.816;37.036;2022-09-25T08:00:59;97934.66;;;9.99;74.48
72798;BME280;61084;55.816;37.036;2022-09-25T08:03:26;97934.19;;;10.05;74.54
72798;BME280;61084;55.816;37.036;2022-09-25T08:06:01;97941.84;;;10.08;74.55
72798;BME280;61084;55.816;37.036;2022-09-25T08:08:28;97950.25;;;10.13;74.53
72798;BME280;61084;55.816;37.036;2022-09-25T08:10:59;97948.34;;;10.15;74.51
72798;BME280;61084;55.816;37.036;2022-09-25T08:13:26;97947.38;;;10.16;74.36
72798;BME280;61084;55.816;37.036;2022-09-25T08:15:53;97954.06;;;10.20;74.51
72798;BME280;61084;55.816;37.036;2022-09-25T08:18:19;97951.22;;;10.23;74.39
72798;BME280;61084;55.816;37.036;2022-09-25T08:20:45;97953.84;;;10.23;74.30
72798;BME280;61084;55.816;37.036;2022-09-25T08:23:11;97953.63;;;10.26;74.34
72798;BME280;61084;55.816;37.036;2022-09-25T08:25:36;97958.97;;;10.25;74.32
72798;BME280;61084;55.816;37.036;2022-09-25T08:28:02;97954.44;;;10.27;74.23
72798;BME280;61084;55.816;37.036;2022-09-25T08:30:28;97959.81;;;10.25;74.12
72798;BME280;61084;55.816;37.036;2022-09-25T08:32:54;97975.75;;;10.22;74.19
72798;BME280;61084;55.816;37.036;2022-09-25T08:35:20;97978.38;;;10.22;73.91
72798;BME280;61084;55.816;37.036;2022-09-25T08:37:46;97981.13;;;10.21;73.89
72798;BME280;61084;55.816;37.036;2022-09-25T08:40:19;97994.09;;;10.22;73.91
72798;BME280;61084;55.816;37.036;2022-09-25T08:42:48;97997.56;;;10.23;73.94
72798;BME280;61084;55.816;37.036;2022-09-25T08:45:34;97998.63;;;10.20;73.68
72798;BME280;61084;55.816;37.036;2022-09-25T08:48:29;98012.84;;;10.18;73.54
72798;BME280;61084;55.816;37.036;2022-09-25T08:51:15;98010.22;;;10.18;73.86
72798;BME280;61084;55.816;37.036;2022-09-25T08:53:41;98005.91;;;10.17;73.42
72798;BME280;61084;55.816;37.036;2022-09-25T08:56:11;98021.41;;;10.20;73.77
72798;BME280;61084;55.816;37.036;2022-09-25T08:59:02;98025.56;;;10.22;73.93
72798;BME280;61084;55.816;37.036;2022-09-25T09:01:58;98024.66;;;10.23;73.48
72798;BME280;61084;55.816;37.036;2022-09-25T09:04:32;98029.16;;;10.21;73.57
72798;BME280;61084;55.816;37.036;2022-09-25T09:07:09;98032.63;;;10.22;73.66
72798;BME280;61084;55.816;37.036;2022-09-25T09:09:41;98044.19;;;10.19;73.44
72798;BME280;61084;55.816;37.036;2022-09-25T09:12:39;98047.53;;;10.21;73.69
72798;BME280;61084;55.816;37.036;2022-09-25T09:15:16;98056.22;;;10.22;73.42
72798;BME280;61084;55.816;37.036;2022-09-25T09:17:46;98059.06;;;10.19;73.58
72798;BME280;61084;55.816;37.036;2022-09-25T09:23:44;98061.81;;;10.17;73.28
72798;BME280;61084;55.816;37.036;2022-09-25T09:26:16;98064.31;;;10.19;73.44
72798;BME280;61084;55.816;37.036;2022-09-25T09:32:15;98073.47;;;10.13;73.15
72798;BME280;61084;55.816;37.036;2022-09-25T09:45:49;98082.38;;;10.11;73.09
72798;BME280;61084;55.816;37.036;2022-09-25T09:50:51;98085.00;;;10.11;73.40
72798;BME280;61084;55.816;37.036;2022-09-25T09:55:54;98088.47;;;10.11;73.68
72798;BME280;61084;55.816;37.036;2022-09-25T10:01:02;98092.94;;;10.09;73.37
72798;BME280;61084;55.816;37.036;2022-09-25T10:03:32;98097.16;;;10.12;73.24
72798;BME280;61084;55.816;37.036;2022-09-25T10:06:06;98098.13;;;10.11;73.26
72798;BME280;61084;55.816;37.036;2022-09-25T10:08:33;98103.13;;;10.14;73.36
72798;BME280;61084;55.816;37.036;2022-09-25T10:11:04;98100.16;;;10.18;73.24
72798;BME280;61084;55.816;37.036;2022-09-25T10:13:38;98109.34;;;10.13;73.39
72798;BME280;61084;55.816;37.036;2022-09-25T10:16:15;98109.09;;;10.16;73.33
72798;BME280;61084;55.816;37.036;2022-09-25T10:18:52;98113.28;;;10.18;73.39
72798;BME280;61084;55.816;37.036;2022-09-25T10:21:29;98119.50;;;10.17;73.11
72798;BME280;61084;55.816;37.036;2022-09-25T10:23:56;98116.63;;;10.20;73.32
72798;BME280;61084;55.816;37.036;2022-09-25T10:26:31;98122.41;;;10.25;73.33
72798;BME280;61084;55.816;37.036;2022-09-25T10:28:59;98121.34;;;10.28;73.32
72798;BME280;61084;55.816;37.036;2022-09-25T10:31:32;98122.78;;;10.32;73.27
72798;BME280;61084;55.816;37.036;2022-09-25T10:36:44;98131.25;;;10.35;73.02
72798;BME280;61084;55.816;37.036;2022-09-25T10:39:38;98134.59;;;10.37;72.87
72798;BME280;61084;55.816;37.036;2022-09-25T10:42:37;98125.94;;;10.37;72.93
72798;BME280;61084;55.816;37.036;2022-09-25T10:47:49;98145.47;;;10.33;72.71
72798;BME280;61084;55.816;37.036;2022-09-25T10:50:34;98143.66;;;10.33;72.89
72798;BME280;61084;55.816;37.036;2022-09-25T10:53:03;98140.41;;;10.30;72.64
72798;BME280;61084;55.816;37.036;2022-09-25T10:55:32;98138.53;;;10.32;72.82
72798;BME280;61084;55.816;37.036;2022-09-25T11:00:53;98146.91;;;10.37;72.58
72798;BME280;61084;55.816;37.036;2022-09-25T11:03:23;98150.13;;;10.40;72.86
72798;BME280;61084;55.816;37.036;2022-09-25T11:05:56;98156.09;;;10.42;72.77
72798;BME280;61084;55.816;37.036;2022-09-25T11:08:26;98156.75;;;10.46;72.55
72798;BME280;61084;55.816;37.036;2022-09-25T11:10:57;98155.91;;;10.45;72.57
72798;BME280;61084;55.816;37.036;2022-09-25T11:13:29;98159.25;;;10.47;72.69
72798;BME280;61084;55.816;37.036;2022-09-25T11:16:03;98158.06;;;10.51;72.51
72798;BME280;61084;55.816;37.036;2022-09-25T11:18:37;98164.03;;;10.53;72.20
72798;BME280;61084;55.816;37.036;2022-09-25T11:21:04;98163.84;;;10.56;72.38
72798;BME280;61084;55.816;37.036;2022-09-25T11:26:11;98163.59;;;10.59;72.35
72798;BME280;61084;55.816;37.036;2022-09-25T11:36:30;98176.03;;;10.69;72.13
72798;BME280;61084;55.816;37.036;2022-09-25T11:39:02;98176.03;;;10.69;72.24
72798;BME280;61084;55.816;37.036;2022-09-25T11:41:54;98180.56;;;10.67;72.11
72798;BME280;61084;55.816;37.036;2022-09-25T11:44:53;98178.66;;;10.69;72.08
72798;BME280;61084;55.816;37.036;2022-09-25T11:49:53;98176.31;;;10.77;72.37
72798;BME280;61084;55.816;37.036;2022-09-25T11:55:31;98181.13;;;10.83;72.12
72798;BME280;61084;55.816;37.036;2022-09-25T11:58:29;98180.16;;;10.84;72.20
72798;BME280;61084;55.816;37.036;2022-09-25T12:12:08;98190.19;;;10.79;71.91
72798;BME280;61084;55.816;37.036;2022-09-25T12:17:08;98197.22;;;10.78;71.72
72798;BME280;61084;55.816;37.036;2022-09-25T12:19:46;98192.69;;;10.80;71.84
72798;BME280;61084;55.816;37.036;2022-09-25T12:36:49;98208.00;;;10.86;71.67
72798;BME280;61084;55.816;37.036;2022-09-25T12:39:58;98204.03;;;10.81;71.32
72798;BME280;61084;55.816;37.036;2022-09-25T12:42:49;98201.41;;;10.81;71.37
72798;BME280;61084;55.816;37.036;2022-09-25T12:51:09;98216.06;;;10.72;71.52
72798;BME280;61084;55.816;37.036;2022-09-25T12:54:36;98218.03;;;10.69;71.26
72798;BME280;61084;55.816;37.036;2022-09-25T12:56:44;98228.53;;;10.69;71.51
72798;BME280;61084;55.816;37.036;2022-09-25T12:59:20;98233.06;;;10.67;71.58
72798;BME280;61084;55.816;37.036;2022-09-25T13:01:56;98231.28;;;10.67;71.40
72798;BME280;61084;55.816;37.036;2022-09-25T13:07:30;98247.16;;;10.66;71.47
72798;BME280;61084;55.816;37.036;2022-09-25T13:09:58;98240.19;;;10.65;71.50
72798;BME280;61084;55.816;37.036;2022-09-25T13:12:35;98235.88;;;10.63;71.44
72798;BME280;61084;55.816;37.036;2022-09-25T13:17:32;98247.56;;;10.59;71.43
72798;BME280;61084;55.816;37.036;2022-09-25T13:25:21;98236.13;;;10.60;71.72
72798;BME280;61084;55.816;37.036;2022-09-25T13:27:47;98242.31;;;10.59;71.75
72798;BME280;61084;55.816;37.036;2022-09-25T13:30:23;98251.88;;;10.60;71.49
72798;BME280;61084;55.816;37.036;2022-09-25T13:32:51;98250.91;;;10.61;71.81
72798;BME280;61084;55.816;37.036;2022-09-25T13:35:20;98254.50;;;10.60;71.61
72798;BME280;61084;55.816;37.036;2022-09-25T13:37:48;98253.53;;;10.61;71.64
72798;BME280;61084;55.816;37.036;2022-09-25T13:40:23;98259.50;;;10.63;71.56
72798;BME280;61084;55.816;37.036;2022-09-25T13:43:25;98262.13;;;10.63;71.62
72798;BME280;61084;55.816;37.036;2022-09-25T13:48:49;98259.88;;;10.59;71.59
72798;BME280;61084;55.816;37.036;2022-09-25T13:53:58;98264.25;;;10.58;71.72
72798;BME280;61084;55.816;37.036;2022-09-25T14:01:50;98277.59;;;10.55;71.56
72798;BME280;61084;55.816;37.036;2022-09-25T14:06:55;98280.34;;;10.54;71.61
72798;BME280;61084;55.816;37.036;2022-09-25T14:09:26;98277.72;;;10.54;71.83
72798;BME280;61084;55.816;37.036;2022-09-25T14:14:43;98276.97;;;10.52;71.55
72798;BME280;61084;55.816;37.036;2022-09-25T14:17:18;98283.06;;;10.52;71.71
72798;BME280;61084;55.816;37.036;2022-09-25T14:19:48;98284.00;;;10.51;71.72
72798;BME280;61084;55.816;37.036;2022-09-25T14:22:20;98283.41;;;10.48;71.31
72798;BME280;61084;55.816;37.036;2022-09-25T14:24:51;98285.06;;;10.49;71.48
72798;BME280;61084;55.816;37.036;2022-09-25T14:27:27;98287.91;;;10.46;71.65
72798;BME280;61084;55.816;37.036;2022-09-25T14:30:11;98288.00;;;10.44;71.35
72798;BME280;61084;55.816;37.036;2022-09-25T14:32:47;98297.75;;;10.42;71.54
72798;BME280;61084;55.816;37.036;2022-09-25T14:35:34;98293.56;;;10.40;71.30
72798;BME280;61084;55.816;37.036;2022-09-25T14:38:18;98298.19;;;10.36;71.62
72798;BME280;61084;55.816;37.036;2022-09-25T14:44:12;98301.03;;;10.33;71.58
72798;BME280;61084;55.816;37.036;2022-09-25T14:46:43;98297.59;;;10.33;71.42
72798;BME280;61084;55.816;37.036;2022-09-25T14:49:25;98303.03;;;10.30;71.49
72798;BME280;61084;55.816;37.036;2022-09-25T14:51:55;98303.03;;;10.30;71.79
72798;BME280;61084;55.816;37.036;2022-09-25T14:54:24;98303.03;;;10.30;71.76
72798;BME280;61084;55.816;37.036;2022-09-25T14:56:56;98303.97;;;10.29;71.67
72798;BME280;61084;55.816;37.036;2022-09-25T14:59:29;98302.28;;;10.28;71.67
72798;BME280;61084;55.816;37.036;2022-09-25T15:01:57;98298.72;;;10.29;71.85
72798;BME280;61084;55.816;37.036;2022-09-25T15:04:35;98298.81;;;10.27;71.77
72798;BME280;61084;55.816;37.036;2022-09-25T15:09:37;98306.81;;;10.26;71.63
72798;BME280;61084;55.816;37.036;2022-09-25T15:17:22;98318.22;;;10.25;71.90
72798;BME280;61084;55.816;37.036;2022-09-25T15:19:49;98327.06;;;10.24;71.81
72798;BME280;61084;55.816;37.036;2022-09-25T15:22:21;98328.09;;;10.21;71.61
72798;BME280;61084;55.816;37.036;2022-09-25T15:24:54;98330.84;;;10.20;71.77
72798;BME280;61084;55.816;37.036;2022-09-25T15:27:23;98333.53;;;10.18;71.78
72798;BME280;61084;55.816;37.036;2022-09-25T15:29:51;98327.50;;;10.18;71.81
72798;BME280;61084;55.816;37.036;2022-09-25T15:32:20;98331.97;;;10.16;71.85
72798;BME280;61084;55.816;37.036;2022-09-25T15:34:46;98331.34;;;10.12;71.92
72798;BME280;61084;55.816;37.036;2022-09-25T15:37:26;98342.69;;;10.13;72.01
72798;BME280;61084;55.816;37.036;2022-09-25T15:39:54;98337.59;;;10.10;72.00
72798;BME280;61084;55.816;37.036;2022-09-25T15:42:20;98348.94;;;10.10;71.74
72798;BME280;61084;55.816;37.036;2022-09-25T15:44:47;98345.69;;;10.07;71.83